createdAt,value
2022-10-30T00:00:41.243Z,14.59
2022-10-30T00:03:14.031Z,14.60
2022-10-30T00:05:45.506Z,14.63
2022-10-30T00:08:13.794Z,14.63
2022-10-30T00:10:41.186Z,14.64
2022-10-30T00:13:08.190Z,14.65
2022-10-30T00:15:34.996Z,14.64
2022-10-30T00:18:02.031Z,14.67
2022-10-30T00:20:28.857Z,14.69
2022-10-30T00:22:55.993Z,14.69
2022-10-30T00:25:22.779Z,14.70
2022-10-30T00:27:49.326Z,14.71
2022-10-30T00:30:16.405Z,14.69
2022-10-30T00:32:43.856Z,14.71
2022-10-30T00:35:11.401Z,14.72
2022-10-30T00:37:39.012Z,14.71
2022-10-30T00:40:06.876Z,14.71
2022-10-30T00:42:33.662Z,14.70
2022-10-30T00:45:00.510Z,14.71
2022-10-30T00:47:38.569Z,14.71
2022-10-30T00:50:13.892Z,14.72
2022-10-30T00:52:50.740Z,14.75
2022-10-30T00:55:20.888Z,14.75
2022-10-30T00:57:48.543Z,14.77
2022-10-30T01:00:15.845Z,14.79
2022-10-30T01:02:43.789Z,14.79
2022-10-30T01:05:15.605Z,14.83
2022-10-30T01:07:42.126Z,14.83
2022-10-30T01:10:09.660Z,14.86
2022-10-30T01:12:36.514Z,14.89
2022-10-30T01:15:03.567Z,14.89
2022-10-30T01:17:53.146Z,14.90
2022-10-30T01:20:57.366Z,14.91
2022-10-30T01:23:48.833Z,14.92
2022-10-30T01:26:44.641Z,14.91
2022-10-30T01:29:40.424Z,14.91
2022-10-30T01:32:15.458Z,14.90
2022-10-30T01:35:07.976Z,14.87
2022-10-30T01:37:57.710Z,14.87
2022-10-30T01:40:24.886Z,14.84
2022-10-30T01:42:58.344Z,14.81
2022-10-30T01:46:03.977Z,14.79
2022-10-30T01:48:55.198Z,14.76
2022-10-30T01:51:39.462Z,14.74
2022-10-30T01:54:41.602Z,14.67
2022-10-30T01:57:41.296Z,14.64
2022-10-30T02:00:16.012Z,14.60
2022-10-30T02:02:49.365Z,14.56
2022-10-30T02:05:32.866Z,14.53
2022-10-30T02:07:59.707Z,14.53
2022-10-30T02:10:27.455Z,14.51
2022-10-30T02:12:54.506Z,14.47
2022-10-30T02:15:24.020Z,14.44
2022-10-30T02:17:50.576Z,14.41
2022-10-30T02:20:19.751Z,14.38
2022-10-30T02:22:47.270Z,14.35
2022-10-30T02:25:14.599Z,14.31
2022-10-30T02:27:41.588Z,14.28
2022-10-30T02:30:11.631Z,14.25
2022-10-30T02:32:38.338Z,14.22
2022-10-30T02:35:06.065Z,14.18
2022-10-30T02:37:32.797Z,14.14
2022-10-30T02:39:59.521Z,14.09
2022-10-30T02:42:26.016Z,14.06
2022-10-30T02:44:53.532Z,14.03
2022-10-30T02:47:20.240Z,13.98
2022-10-30T02:49:47.227Z,13.94
2022-10-30T02:52:13.785Z,13.90
2022-10-30T02:54:41.799Z,13.86
2022-10-30T02:57:09.523Z,13.83
2022-10-30T02:59:37.721Z,13.80
2022-10-30T03:02:04.319Z,13.77
2022-10-30T03:04:31.056Z,13.73
2022-10-30T03:06:57.728Z,13.71
2022-10-30T03:09:24.454Z,13.69
2022-10-30T03:11:50.984Z,13.68
2022-10-30T03:14:17.611Z,13.66
2022-10-30T03:16:44.133Z,13.64
2022-10-30T03:19:10.779Z,13.63
2022-10-30T03:21:37.315Z,13.59
2022-10-30T03:24:04.814Z,13.56
2022-10-30T03:26:32.333Z,13.51
2022-10-30T03:29:06.806Z,13.49
2022-10-30T03:31:33.841Z,13.43
2022-10-30T03:34:13.879Z,13.41
2022-10-30T03:36:41.750Z,13.38
2022-10-30T03:39:08.410Z,13.34
2022-10-30T03:41:35.795Z,13.32
2022-10-30T03:44:02.365Z,13.30
2022-10-30T03:46:31.411Z,13.27
2022-10-30T03:49:10.826Z,13.27
2022-10-30T03:51:37.732Z,13.27
2022-10-30T03:54:04.324Z,13.27
2022-10-30T03:56:32.717Z,13.29
2022-10-30T03:59:00.784Z,13.32
2022-10-30T04:01:28.197Z,13.33
2022-10-30T04:03:56.879Z,13.32
2022-10-30T04:06:25.042Z,13.34
2022-10-30T04:08:53.931Z,13.37
2022-10-30T04:11:20.611Z,13.43
2022-10-30T04:13:47.131Z,13.49
2022-10-30T04:16:13.677Z,13.54
2022-10-30T04:18:40.831Z,13.59
2022-10-30T04:21:07.417Z,13.64
2022-10-30T04:23:35.739Z,13.69
2022-10-30T04:26:02.339Z,13.70
2022-10-30T04:28:29.067Z,13.74
2022-10-30T04:30:56.459Z,13.76
2022-10-30T04:33:25.551Z,13.77
2022-10-30T04:35:52.073Z,13.78
2022-10-30T04:38:20.420Z,13.78
2022-10-30T04:40:48.109Z,13.78
2022-10-30T04:43:16.262Z,13.77
2022-10-30T04:45:47.549Z,13.77
2022-10-30T04:48:16.858Z,13.76
2022-10-30T04:50:44.422Z,13.75
2022-10-30T04:53:19.060Z,13.71
2022-10-30T04:55:48.045Z,13.69
2022-10-30T04:58:15.121Z,13.66
2022-10-30T05:00:43.757Z,13.65
2022-10-30T05:03:23.128Z,13.62
2022-10-30T05:05:58.157Z,13.60
2022-10-30T05:08:24.886Z,13.56
2022-10-30T05:10:52.209Z,13.51
2022-10-30T05:13:18.994Z,13.45
2022-10-30T05:15:45.684Z,13.41
2022-10-30T05:18:12.242Z,13.36
2022-10-30T05:20:38.977Z,13.32
2022-10-30T05:23:05.669Z,13.30
2022-10-30T05:25:32.655Z,13.27
2022-10-30T05:28:02.534Z,13.27
2022-10-30T05:30:33.014Z,13.26
2022-10-30T05:33:01.295Z,13.26
2022-10-30T05:35:30.367Z,13.24
2022-10-30T05:37:57.458Z,13.23
2022-10-30T05:40:24.184Z,13.21
2022-10-30T05:42:51.534Z,13.20
2022-10-30T05:45:18.420Z,13.16
2022-10-30T05:47:55.270Z,13.14
2022-10-30T05:50:23.193Z,13.14
2022-10-30T05:53:10.413Z,13.12
2022-10-30T05:55:38.760Z,13.15
2022-10-30T05:58:17.194Z,13.15
2022-10-30T06:00:47.593Z,13.11
2022-10-30T06:03:19.583Z,13.08
2022-10-30T06:05:47.240Z,13.06
2022-10-30T06:08:16.268Z,13.03
2022-10-30T06:10:43.880Z,13.02
2022-10-30T06:13:16.756Z,13.01
2022-10-30T06:16:01.659Z,13.02
2022-10-30T06:18:46.584Z,13.01
2022-10-30T06:21:13.481Z,13.01
2022-10-30T06:23:49.545Z,13.01
2022-10-30T06:26:32.685Z,13.02
2022-10-30T06:29:05.294Z,13.02
2022-10-30T06:31:31.884Z,13.02
2022-10-30T06:34:00.356Z,13.03
2022-10-30T06:36:28.009Z,13.05
2022-10-30T06:38:54.575Z,13.05
2022-10-30T06:41:29.070Z,13.07
2022-10-30T06:44:15.211Z,13.08
2022-10-30T06:46:41.740Z,13.09
2022-10-30T06:49:08.663Z,13.11
2022-10-30T06:51:35.324Z,13.13
2022-10-30T06:54:02.838Z,13.14
2022-10-30T06:56:52.603Z,13.16
2022-10-30T06:59:44.197Z,13.18
2022-10-30T07:02:24.576Z,13.20
2022-10-30T07:04:54.872Z,13.23
2022-10-30T07:07:21.573Z,13.24
2022-10-30T07:09:48.426Z,13.27
2022-10-30T07:12:17.534Z,13.30
2022-10-30T07:14:56.169Z,13.33
2022-10-30T07:17:52.414Z,13.35
2022-10-30T07:20:22.400Z,13.38
2022-10-30T07:22:49.056Z,13.41
2022-10-30T07:25:15.986Z,13.46
2022-10-30T07:27:57.659Z,13.49
2022-10-30T07:30:31.539Z,13.53
2022-10-30T07:33:15.082Z,13.57
2022-10-30T07:36:14.961Z,13.67
2022-10-30T07:39:03.546Z,13.72
2022-10-30T07:41:37.705Z,13.74
2022-10-30T07:44:32.898Z,13.79
2022-10-30T07:47:18.589Z,13.85
2022-10-30T07:50:06.039Z,13.90
2022-10-30T07:52:33.625Z,13.95
2022-10-30T07:55:00.617Z,13.99
2022-10-30T07:57:56.948Z,14.05
2022-10-30T08:00:56.486Z,14.12
2022-10-30T08:03:30.271Z,14.17
2022-10-30T08:06:04.265Z,14.23
2022-10-30T08:08:39.090Z,14.29
2022-10-30T08:11:42.054Z,14.36
2022-10-30T08:14:08.575Z,14.40
2022-10-30T08:16:35.416Z,14.46
2022-10-30T08:19:02.629Z,14.53
2022-10-30T08:21:29.296Z,14.59
2022-10-30T08:24:01.697Z,14.65
2022-10-30T08:26:31.561Z,14.74
2022-10-30T08:28:58.128Z,14.85
2022-10-30T08:31:26.307Z,14.93
2022-10-30T08:34:02.067Z,15.00
2022-10-30T08:36:54.928Z,15.05
2022-10-30T08:39:22.085Z,15.10
2022-10-30T08:41:56.706Z,15.15
2022-10-30T08:44:23.385Z,15.21
2022-10-30T08:47:19.243Z,15.26
2022-10-30T08:49:46.442Z,15.32
2022-10-30T08:52:15.573Z,15.38
2022-10-30T08:54:44.483Z,15.43
2022-10-30T08:57:11.550Z,15.52
2022-10-30T08:59:39.348Z,15.57
2022-10-30T09:02:12.766Z,15.63
2022-10-30T09:05:19.481Z,15.70
2022-10-30T09:08:04.375Z,15.77
2022-10-30T09:10:59.401Z,15.82
2022-10-30T09:13:26.682Z,15.89
2022-10-30T09:15:54.656Z,15.96
2022-10-30T09:18:21.691Z,16.02
2022-10-30T09:20:49.674Z,16.08
2022-10-30T09:23:16.409Z,16.16
2022-10-30T09:25:45.967Z,16.23
2022-10-30T09:28:35.428Z,16.35
2022-10-30T09:31:22.019Z,16.48
2022-10-30T09:33:49.079Z,16.54
2022-10-30T09:36:33.966Z,16.60
2022-10-30T09:39:01.084Z,16.69
2022-10-30T09:41:58.528Z,16.76
2022-10-30T09:45:08.096Z,16.87
2022-10-30T09:47:44.065Z,17.00
2022-10-30T09:50:26.155Z,17.12
2022-10-30T09:53:07.112Z,17.23
2022-10-30T09:55:49.261Z,17.29
2022-10-30T09:58:28.074Z,17.33
2022-10-30T10:01:21.424Z,17.38
2022-10-30T10:04:00.757Z,17.41
2022-10-30T10:06:44.845Z,17.47
2022-10-30T10:09:43.680Z,17.51
2022-10-30T10:12:35.284Z,17.62
2022-10-30T10:15:10.593Z,17.72
2022-10-30T10:17:41.412Z,17.82
2022-10-30T10:20:20.364Z,17.86
2022-10-30T10:22:50.409Z,17.94
2022-10-30T10:25:20.776Z,18.01
2022-10-30T10:27:59.489Z,18.10
2022-10-30T10:30:36.925Z,18.18
2022-10-30T10:33:57.633Z,18.26
2022-10-30T10:36:33.606Z,18.31
2022-10-30T10:39:25.027Z,18.35
2022-10-30T10:42:24.782Z,18.43
2022-10-30T10:45:04.424Z,18.54
2022-10-30T10:47:54.382Z,18.58
2022-10-30T10:50:46.692Z,18.64
2022-10-30T10:53:57.440Z,18.69
2022-10-30T10:56:33.723Z,18.70
2022-10-30T10:59:08.884Z,18.79
2022-10-30T11:01:40.334Z,18.83
2022-10-30T11:04:29.070Z,18.93
2022-10-30T11:06:57.132Z,18.97
2022-10-30T11:09:27.207Z,19.00
2022-10-30T11:11:55.563Z,19.03
2022-10-30T11:14:29.046Z,19.06
2022-10-30T11:17:08.234Z,19.06
2022-10-30T11:19:34.900Z,19.10
2022-10-30T11:22:04.154Z,19.16
2022-10-30T11:24:36.579Z,19.21
2022-10-30T11:27:24.219Z,19.23
2022-10-30T11:30:01.235Z,19.31
2022-10-30T11:32:30.808Z,19.37
2022-10-30T11:35:03.518Z,19.45
2022-10-30T11:37:33.041Z,19.50
2022-10-30T11:40:07.416Z,19.51
2022-10-30T11:42:35.234Z,19.51
2022-10-30T11:45:03.225Z,19.55
2022-10-30T11:47:38.369Z,19.61
2022-10-30T11:50:15.279Z,19.64
2022-10-30T11:52:43.930Z,19.69
2022-10-30T11:55:36.275Z,19.74
2022-10-30T11:58:05.095Z,19.81
2022-10-30T12:00:34.417Z,19.86
2022-10-30T12:03:01.613Z,19.86
2022-10-30T12:05:32.870Z,19.86
2022-10-30T12:08:08.625Z,19.85
2022-10-30T12:10:52.396Z,19.88
2022-10-30T12:13:21.596Z,19.92
2022-10-30T12:15:50.857Z,19.94
2022-10-30T12:18:24.798Z,19.95
2022-10-30T12:20:54.312Z,19.95
2022-10-30T12:23:25.788Z,19.97
2022-10-30T12:25:54.940Z,19.98
2022-10-30T12:28:24.760Z,20.04
2022-10-30T12:30:51.370Z,20.07
2022-10-30T12:33:23.032Z,20.04
2022-10-30T12:35:56.943Z,20.04
2022-10-30T12:38:42.239Z,20.01
2022-10-30T12:41:18.777Z,20.02
2022-10-30T12:43:58.092Z,20.03
2022-10-30T12:46:40.215Z,20.03
2022-10-30T12:49:26.359Z,20.07
2022-10-30T12:52:02.414Z,20.05
2022-10-30T12:54:42.707Z,20.07
2022-10-30T12:57:15.842Z,20.06
2022-10-30T13:00:07.501Z,20.06
2022-10-30T13:02:42.655Z,20.06
2022-10-30T13:05:25.960Z,20.09
2022-10-30T13:08:04.501Z,20.13
2022-10-30T13:10:46.062Z,20.16
2022-10-30T13:13:21.668Z,20.15
2022-10-30T13:15:57.553Z,20.11
2022-10-30T13:18:31.481Z,20.13
2022-10-30T13:21:11.225Z,20.12
2022-10-30T13:23:48.497Z,20.09
2022-10-30T13:26:26.976Z,20.08
2022-10-30T13:29:23.414Z,20.11
2022-10-30T13:31:50.664Z,20.10
2022-10-30T13:34:19.969Z,20.08
2022-10-30T13:36:54.323Z,20.06
2022-10-30T13:39:36.386Z,20.08
2022-10-30T13:42:25.092Z,20.06
2022-10-30T13:44:54.311Z,20.04
2022-10-30T13:47:29.913Z,20.03
2022-10-30T13:50:28.817Z,20.01
2022-10-30T13:52:58.970Z,20.03
2022-10-30T13:55:35.911Z,20.01
2022-10-30T13:58:02.442Z,19.99
2022-10-30T14:00:34.755Z,19.97
2022-10-30T14:03:26.191Z,19.94
2022-10-30T14:06:07.904Z,19.92
2022-10-30T14:09:02.220Z,19.90
2022-10-30T14:11:28.756Z,19.86
2022-10-30T14:13:57.974Z,19.82
2022-10-30T14:16:46.516Z,19.79
2022-10-30T14:19:16.923Z,19.76
2022-10-30T14:21:44.769Z,19.75
2022-10-30T14:24:21.105Z,19.70
2022-10-30T14:26:55.010Z,19.68
2022-10-30T14:29:33.896Z,19.65
2022-10-30T14:32:01.668Z,19.63
2022-10-30T14:34:50.406Z,19.59
2022-10-30T14:37:24.159Z,19.58
2022-10-30T14:39:51.863Z,19.56
2022-10-30T14:42:50.983Z,19.53
2022-10-30T14:45:25.756Z,19.49
2022-10-30T14:47:58.456Z,19.44
2022-10-30T14:50:40.176Z,19.41
2022-10-30T14:53:30.223Z,19.38
2022-10-30T14:58:42.073Z,19.27
2022-10-30T15:01:27.522Z,19.21
2022-10-30T15:04:13.430Z,19.15
2022-10-30T15:06:39.941Z,19.12
2022-10-30T15:09:48.388Z,19.06
2022-10-30T15:12:35.868Z,18.97
2022-10-30T15:15:09.641Z,18.89
2022-10-30T15:17:45.267Z,18.82
2022-10-30T15:20:25.830Z,18.72
2022-10-30T15:22:59.706Z,18.62
2022-10-30T15:25:33.498Z,18.53
2022-10-30T15:28:00.858Z,18.44
2022-10-30T15:30:28.402Z,18.37
2022-10-30T15:32:55.191Z,18.29
2022-10-30T15:35:27.406Z,18.21
2022-10-30T15:38:07.169Z,18.13
2022-10-30T15:40:35.390Z,18.04
2022-10-30T15:43:04.525Z,17.97
2022-10-30T15:45:37.006Z,17.88
2022-10-30T15:48:19.403Z,17.80
2022-10-30T15:50:54.690Z,17.73
2022-10-30T15:53:27.343Z,17.67
2022-10-30T15:55:58.748Z,17.60
2022-10-30T15:58:25.653Z,17.55
2022-10-30T16:01:01.368Z,17.50
2022-10-30T16:03:29.255Z,17.46
2022-10-30T16:06:17.656Z,17.41
2022-10-30T16:08:46.868Z,17.37
2022-10-30T16:11:14.918Z,17.32
2022-10-30T16:13:42.274Z,17.27
2022-10-30T16:16:17.118Z,17.22
2022-10-30T16:18:44.278Z,17.17
2022-10-30T16:21:15.918Z,17.13
2022-10-30T16:23:55.150Z,17.08
2022-10-30T16:26:27.146Z,17.04
2022-10-30T16:28:53.730Z,17.01
2022-10-30T16:31:20.814Z,16.98
2022-10-30T16:33:48.182Z,16.93
2022-10-30T16:36:17.911Z,16.91
2022-10-30T16:38:48.255Z,16.86
2022-10-30T16:41:15.168Z,16.83
2022-10-30T16:43:48.444Z,16.80
2022-10-30T16:46:14.933Z,16.77
2022-10-30T16:48:46.679Z,16.75
2022-10-30T16:51:17.968Z,16.72
2022-10-30T16:53:48.798Z,16.70
2022-10-30T16:56:25.852Z,16.66
2022-10-30T16:58:56.186Z,16.63
2022-10-30T17:01:27.938Z,16.61
2022-10-30T17:03:55.764Z,16.57
2022-10-30T17:06:44.715Z,16.54
2022-10-30T17:09:28.775Z,16.51
2022-10-30T17:12:13.976Z,16.48
2022-10-30T17:14:46.642Z,16.46
2022-10-30T17:17:31.768Z,16.44
2022-10-30T17:20:23.764Z,16.42
2022-10-30T17:23:16.579Z,16.41
2022-10-30T17:25:43.522Z,16.39
2022-10-30T17:28:27.461Z,16.37
2022-10-30T17:30:57.640Z,16.35
2022-10-30T17:33:37.106Z,16.31
2022-10-30T17:36:05.925Z,16.28
2022-10-30T17:38:32.663Z,16.24
2022-10-30T17:41:00.129Z,16.20
2022-10-30T17:43:30.107Z,16.15
2022-10-30T17:45:57.619Z,16.11
2022-10-30T17:48:26.972Z,16.06
2022-10-30T17:50:53.864Z,16.00
2022-10-30T17:53:23.225Z,15.94
2022-10-30T17:55:58.985Z,15.88
2022-10-30T17:58:25.667Z,15.84
2022-10-30T18:00:52.325Z,15.79
2022-10-30T18:03:18.965Z,15.74
2022-10-30T18:05:46.749Z,15.70
2022-10-30T18:08:13.291Z,15.66
2022-10-30T18:10:39.853Z,15.60
2022-10-30T18:13:06.396Z,15.56
2022-10-30T18:15:45.232Z,15.51
2022-10-30T18:18:11.779Z,15.47
2022-10-30T18:20:38.807Z,15.43
2022-10-30T18:26:20.904Z,15.36
2022-10-30T18:28:48.006Z,15.33
2022-10-30T18:31:16.933Z,15.28
2022-10-30T18:33:44.234Z,15.24
2022-10-30T18:36:17.011Z,15.21
2022-10-30T18:38:44.260Z,15.19
2022-10-30T18:41:44.870Z,15.14
2022-10-30T18:44:16.158Z,15.12
2022-10-30T18:46:43.163Z,15.09
2022-10-30T18:49:09.768Z,15.06
2022-10-30T18:51:36.393Z,15.04
2022-10-30T18:54:03.193Z,15.00
2022-10-30T18:56:32.669Z,14.97
2022-10-30T18:59:01.711Z,14.96
2022-10-30T19:01:29.910Z,14.95
2022-10-30T19:03:58.655Z,14.93
2022-10-30T19:06:25.189Z,14.94
2022-10-30T19:08:51.730Z,14.94
2022-10-30T19:11:24.319Z,14.93
2022-10-30T19:13:52.642Z,14.93
2022-10-30T19:16:21.472Z,14.94
2022-10-30T19:18:48.759Z,14.94
2022-10-30T19:21:18.382Z,14.94
2022-10-30T19:23:45.291Z,14.94
2022-10-30T19:26:14.622Z,14.95
2022-10-30T19:28:41.693Z,14.97
2022-10-30T19:31:13.707Z,14.98
2022-10-30T19:33:40.192Z,14.99
2022-10-30T19:36:06.967Z,15.00
2022-10-30T19:38:34.015Z,15.00
2022-10-30T19:41:00.825Z,14.99
2022-10-30T19:43:27.764Z,14.99
2022-10-30T19:45:56.941Z,14.98
2022-10-30T19:48:47.736Z,14.97
2022-10-30T19:51:11.903Z,14.96
2022-10-30T19:53:40.043Z,14.95
2022-10-30T19:56:07.105Z,14.91
2022-10-30T19:58:33.730Z,14.89
2022-10-30T20:01:00.398Z,14.86
2022-10-30T20:03:27.085Z,14.84
2022-10-30T20:05:55.598Z,14.82
2022-10-30T20:08:24.219Z,14.79
2022-10-30T20:10:55.803Z,14.77
2022-10-30T20:13:23.569Z,14.76
2022-10-30T20:15:51.519Z,14.75
2022-10-30T20:18:20.822Z,14.73
2022-10-30T20:20:55.795Z,14.73
2022-10-30T20:23:23.886Z,14.74
2022-10-30T20:25:59.409Z,14.75
2022-10-30T20:28:27.564Z,14.75
2022-10-30T20:30:54.892Z,14.75
2022-10-30T20:33:22.783Z,14.75
2022-10-30T20:35:50.638Z,14.76
2022-10-30T20:38:19.652Z,14.75
2022-10-30T20:40:47.626Z,14.74
2022-10-30T20:43:20.048Z,14.73
2022-10-30T20:45:47.517Z,14.73
2022-10-30T20:48:14.159Z,14.75
2022-10-30T20:50:40.987Z,14.75
2022-10-30T20:53:12.739Z,14.68
2022-10-30T20:55:40.307Z,14.64
2022-10-30T20:58:07.046Z,14.60
2022-10-30T21:00:33.853Z,14.56
2022-10-30T21:03:05.107Z,14.52
2022-10-30T21:05:45.092Z,14.48
2022-10-30T21:08:13.780Z,14.48
2022-10-30T21:10:41.267Z,14.46
2022-10-30T21:13:09.625Z,14.44
2022-10-30T21:15:42.623Z,14.42
2022-10-30T21:18:11.425Z,14.40
2022-10-30T21:20:38.770Z,14.37
2022-10-30T21:23:05.944Z,14.36
2022-10-30T21:25:32.973Z,14.33
2022-10-30T21:28:00.418Z,14.31
2022-10-30T21:30:27.862Z,14.27
2022-10-30T21:32:54.433Z,14.24
2022-10-30T21:35:20.973Z,14.21
2022-10-30T21:37:47.649Z,14.17
2022-10-30T21:40:14.247Z,14.13
2022-10-30T21:42:40.893Z,14.08
2022-10-30T21:45:08.283Z,14.04
2022-10-30T21:47:34.865Z,14.01
2022-10-30T21:50:06.056Z,13.96
2022-10-30T21:52:36.146Z,13.93
2022-10-30T21:55:02.960Z,13.88
2022-10-30T21:57:29.758Z,13.86
2022-10-30T21:59:58.778Z,13.82
2022-10-30T22:02:31.087Z,13.78
2022-10-30T22:04:57.581Z,13.74
2022-10-30T22:07:24.241Z,13.73
2022-10-30T22:09:50.862Z,13.70
2022-10-30T22:12:20.410Z,13.67
2022-10-30T22:14:46.955Z,13.63
2022-10-30T22:17:13.524Z,13.60
2022-10-30T22:19:40.012Z,13.57
2022-10-30T22:22:06.979Z,13.54
2022-10-30T22:24:33.617Z,13.51
2022-10-30T22:27:00.251Z,13.48
2022-10-30T22:29:26.765Z,13.47
2022-10-30T22:31:53.257Z,13.44
2022-10-30T22:34:19.725Z,13.39
2022-10-30T22:36:46.896Z,13.37
2022-10-30T22:39:14.265Z,13.34
2022-10-30T22:41:41.746Z,13.30
2022-10-30T22:44:12.643Z,13.28
2022-10-30T22:46:39.642Z,13.26
2022-10-30T22:49:07.114Z,13.23
2022-10-30T22:51:35.997Z,13.23
2022-10-30T22:54:05.081Z,13.22
2022-10-30T22:56:34.090Z,13.21
2022-10-30T22:59:02.712Z,13.23
2022-10-30T23:01:31.903Z,13.24
2022-10-30T23:04:00.263Z,13.25
2022-10-30T23:06:28.837Z,13.26
2022-10-30T23:08:56.846Z,13.25
2022-10-30T23:11:23.616Z,13.22
2022-10-30T23:13:50.211Z,13.20
2022-10-30T23:16:22.202Z,13.18
2022-10-30T23:18:49.952Z,13.19
2022-10-30T23:21:22.172Z,13.18
2022-10-30T23:23:49.404Z,13.19
2022-10-30T23:26:19.247Z,13.19
2022-10-30T23:28:46.844Z,13.20
2022-10-30T23:31:20.678Z,13.22
2022-10-30T23:33:51.432Z,13.22
2022-10-30T23:36:18.839Z,13.24
2022-10-30T23:38:51.147Z,13.23
2022-10-30T23:41:17.661Z,13.22
2022-10-30T23:43:44.222Z,13.21
2022-10-30T23:46:10.809Z,13.18
2022-10-30T23:48:37.281Z,13.16
2022-10-30T23:51:08.259Z,13.15
2022-10-30T23:53:35.337Z,13.13
2022-10-30T23:56:02.151Z,13.10
2022-10-30T23:58:28.660Z,13.05
